Time;durP1;ratioP1;P1;durP2;ratioP2;P2;SDS_P1;SDS_P2;PMS_P1;PMS_P2;Temp;Humidity;BMP_temperature;BMP_pressure;BME280_temperature;BME280_humidity;BME280_pressure;Samples;Min_cycle;Max_cycle;Signal;HPM_P1;HPM_P2
2022/12/25 00:01:10;;;;;;;43.33;15.97;;;8.40;99.90;;;;;;5016942;28;20255;-81
2022/12/25 00:03:38;;;;;;;41.97;18.80;;;8.40;99.90;;;;;;5017121;28;20282;-80
2022/12/25 00:06:05;;;;;;;45.37;19.97;;;8.40;99.90;;;;;;5017082;28;20218;-80
2022/12/25 00:08:32;;;;;;;38.33;17.77;;;8.50;99.90;;;;;;5017053;28;20278;-80
2022/12/25 00:11:00;;;;;;;53.40;19.63;;;8.40;99.90;;;;;;5016652;28;20199;-79
2022/12/25 00:13:28;;;;;;;43.03;18.97;;;8.50;99.90;;;;;;5016229;28;20703;-81
2022/12/25 00:15:56;;;;;;;45.90;17.93;;;8.50;99.90;;;;;;5016302;28;20199;-81
2022/12/25 00:18:23;;;;;;;43.07;18.70;;;8.50;99.90;;;;;;5016683;28;20221;-82
2022/12/25 00:20:57;;;;;;;51.50;18.53;;;8.60;99.90;;;;;;5017255;28;20291;-82
2022/12/25 00:23:24;;;;;;;56.30;21.53;;;8.60;99.90;;;;;;5017189;28;20590;-81
2022/12/25 00:25:52;;;;;;;49.53;18.73;;;8.70;99.90;;;;;;5016784;28;20195;-82
2022/12/25 00:28:19;;;;;;;52.30;20.00;;;8.70;99.90;;;;;;5016936;28;20654;-82
2022/12/25 00:30:47;;;;;;;53.27;18.97;;;8.70;99.90;;;;;;5017185;28;20734;-84
2022/12/25 00:33:15;;;;;;;43.03;18.77;;;8.70;99.90;;;;;;5037093;28;20537;-83
2022/12/25 00:35:42;;;;;;;38.20;18.07;;;8.70;99.90;;;;;;5037574;28;20651;-83
2022/12/25 00:38:09;;;;;;;53.20;19.70;;;8.70;99.90;;;;;;5031291;28;20614;-82
2022/12/25 00:40:42;;;;;;;42.20;18.13;;;8.70;99.90;;;;;;5017027;28;20299;-81
2022/12/25 00:43:09;;;;;;;45.53;18.70;;;8.80;99.90;;;;;;5017506;28;20486;-82
2022/12/25 00:45:36;;;;;;;32.17;17.03;;;8.70;99.90;;;;;;5017146;28;20211;-83
2022/12/25 00:48:05;;;;;;;40.67;17.53;;;8.70;99.90;;;;;;5017473;28;20294;-82
2022/12/25 00:50:31;;;;;;;43.37;19.93;;;8.70;99.90;;;;;;5016539;28;20205;-82
2022/12/25 00:52:58;;;;;;;46.30;21.30;;;8.80;99.90;;;;;;5015403;28;20269;-82
2022/12/25 00:55:25;;;;;;;49.93;22.40;;;8.80;99.90;;;;;;5015838;28;20228;-81
2022/12/25 00:57:52;;;;;;;43.37;21.43;;;8.80;99.90;;;;;;5016403;28;20286;-80
2022/12/25 01:00:19;;;;;;;47.97;20.20;;;8.80;99.90;;;;;;5015510;28;20204;-82
2022/12/25 01:02:46;;;;;;;45.20;20.40;;;8.80;99.90;;;;;;5015146;28;20654;-81
2022/12/25 01:05:15;;;;;;;49.73;21.13;;;8.80;99.90;;;;;;5015867;28;20199;-80
2022/12/25 01:07:42;;;;;;;39.10;20.27;;;8.80;99.90;;;;;;5015489;28;20302;-80
2022/12/25 01:10:21;;;;;;;55.67;22.37;;;8.80;99.90;;;;;;5015985;28;20308;-81
2022/12/25 01:12:48;;;;;;;49.57;21.77;;;8.80;99.90;;;;;;5015535;28;20227;-82
2022/12/25 01:15:15;;;;;;;48.30;22.13;;;8.90;99.90;;;;;;5015510;28;20199;-81
2022/12/25 01:17:43;;;;;;;44.77;21.40;;;8.90;99.90;;;;;;5015488;28;20286;-82
2022/12/25 01:20:11;;;;;;;48.40;20.87;;;8.90;99.90;;;;;;5014332;28;20235;-82
2022/12/25 01:22:39;;;;;;;63.73;23.40;;;8.90;99.90;;;;;;5013765;28;20567;-81
2022/12/25 01:25:07;;;;;;;54.63;22.33;;;8.90;99.90;;;;;;5015650;28;20215;-81
2022/12/25 01:27:35;;;;;;;45.43;22.63;;;8.90;99.90;;;;;;5015661;28;20199;-82
2022/12/25 01:30:02;;;;;;;49.50;20.63;;;9.00;99.90;;;;;;5015693;28;20266;-82
2022/12/25 01:32:29;;;;;;;52.00;22.73;;;9.00;99.90;;;;;;5015807;28;20251;-82
2022/12/25 01:34:56;;;;;;;44.00;22.40;;;9.00;99.90;;;;;;5015923;28;20291;-82
2022/12/25 01:37:23;;;;;;;47.83;20.63;;;8.90;99.90;;;;;;5015888;28;20275;-83
2022/12/25 01:39:53;;;;;;;49.23;21.43;;;8.90;99.90;;;;;;5015786;28;20242;-81
2022/12/25 01:42:22;;;;;;;51.90;23.00;;;9.00;99.90;;;;;;5014727;28;20203;-82
2022/12/25 01:45:43;;;;;;;52.70;23.67;;;9.00;99.90;;;;;;5013489;28;20846;-82
2022/12/25 01:48:15;;;;;;;48.17;20.40;;;9.00;99.90;;;;;;4979156;28;20293;-81
2022/12/25 01:50:44;;;;;;;48.73;21.13;;;8.90;99.90;;;;;;5014994;28;20309;-80
2022/12/25 01:53:11;;;;;;;43.27;21.90;;;8.90;99.90;;;;;;5015621;28;20250;-81
2022/12/25 01:55:41;;;;;;;41.47;21.97;;;8.90;99.90;;;;;;5014974;28;20200;-81
2022/12/25 01:58:09;;;;;;;47.23;22.27;;;8.90;99.90;;;;;;5014532;28;20287;-81
2022/12/25 02:00:36;;;;;;;32.27;19.37;;;8.90;99.90;;;;;;5014683;28;20287;-81
2022/12/25 02:03:03;;;;;;;48.00;21.77;;;8.90;99.90;;;;;;5013941;28;20290;-81
2022/12/25 02:05:32;;;;;;;39.27;20.67;;;8.90;99.90;;;;;;5014357;28;20207;-81
2022/12/25 02:08:03;;;;;;;46.73;21.10;;;8.80;99.90;;;;;;5014479;28;20651;-81
2022/12/25 02:10:30;;;;;;;56.57;23.60;;;8.90;99.90;;;;;;5014637;28;20242;-81
2022/12/25 02:12:59;;;;;;;44.90;22.60;;;8.80;99.90;;;;;;5013733;28;20250;-81
2022/12/25 02:15:33;;;;;;;40.20;21.23;;;8.80;99.90;;;;;;5014394;28;20545;-81
2022/12/25 02:18:06;;;;;;;43.10;23.03;;;8.80;99.90;;;;;;5021256;28;20305;-81
2022/12/25 02:20:45;;;;;;;42.87;21.73;;;8.70;99.90;;;;;;5033794;28;20194;-81
2022/12/25 02:23:47;;;;;;;44.13;23.23;;;8.70;99.90;;;;;;5015604;28;20285;-81
2022/12/25 02:26:23;;;;;;;43.23;21.63;;;8.70;99.90;;;;;;5003180;28;20285;-80
2022/12/25 02:28:59;;;;;;;47.83;22.03;;;8.70;99.90;;;;;;5014029;28;20199;-80
2022/12/25 02:31:32;;;;;;;35.67;21.60;;;8.60;99.90;;;;;;5013954;28;20595;-81
2022/12/25 02:34:06;;;;;;;35.60;20.73;;;8.60;99.90;;;;;;5013211;28;20327;-81
2022/12/25 02:36:42;;;;;;;31.97;19.27;;;8.50;99.90;;;;;;5013917;28;20233;-81
2022/12/25 02:42:04;;;;;;;45.13;23.03;;;8.50;99.90;;;;;;5013087;28;20182;-82
2022/12/25 03:07:12;;;;;;;46.60;21.93;;;8.70;99.90;;;;;;5023503;28;20194;-80
2022/12/25 03:12:38;;;;;;;48.37;23.40;;;8.70;99.90;;;;;;5013750;28;20187;-80
2022/12/25 03:18:08;;;;;;;40.40;20.07;;;8.70;99.90;;;;;;4972319;28;20593;-81
2022/12/25 03:28:54;;;;;;;40.50;21.43;;;8.70;99.90;;;;;;5032911;28;20182;-81
2022/12/25 03:31:27;;;;;;;41.00;22.07;;;8.80;99.90;;;;;;5032218;28;20203;-80
2022/12/25 03:37:17;;;;;;;34.67;20.80;;;8.80;99.90;;;;;;5012892;28;20230;-82
2022/12/25 04:37:58;;;;;;;48.70;26.70;;;9.20;99.90;;;;;;4992506;28;20501;-82
2022/12/25 04:40:26;;;;;;;50.57;27.53;;;9.20;99.90;;;;;;5034392;28;20289;-81
2022/12/25 04:42:53;;;;;;;53.77;27.10;;;9.20;99.90;;;;;;5035990;28;20478;-80
2022/12/25 04:45:20;;;;;;;51.30;27.63;;;9.20;99.90;;;;;;5017962;28;20577;-80
2022/12/25 04:47:47;;;;;;;51.10;27.07;;;9.20;99.90;;;;;;5024785;28;20245;-81
2022/12/25 04:50:14;;;;;;;55.37;29.13;;;9.20;99.90;;;;;;5035638;28;20682;-82
2022/12/25 04:52:41;;;;;;;59.13;29.20;;;9.20;99.90;;;;;;5034724;28;20317;-81
2022/12/25 04:55:10;;;;;;;50.67;28.53;;;9.20;99.90;;;;;;5028067;28;20231;-80
2022/12/25 04:57:38;;;;;;;53.93;28.00;;;9.20;99.90;;;;;;5015875;28;20610;-80
2022/12/25 05:00:08;;;;;;;56.70;30.57;;;9.20;99.90;;;;;;5014914;28;20565;-82
2022/12/25 05:02:34;;;;;;;53.30;27.80;;;9.20;99.90;;;;;;5015663;28;20233;-81
2022/12/25 05:05:01;;;;;;;57.50;29.37;;;9.20;99.90;;;;;;5015546;28;20294;-81
2022/12/25 05:07:28;;;;;;;46.87;27.73;;;9.20;99.90;;;;;;5015085;28;20278;-80
2022/12/25 05:09:55;;;;;;;49.63;29.33;;;9.20;99.90;;;;;;5015628;28;20294;-81
2022/12/25 05:12:22;;;;;;;54.93;29.83;;;9.30;99.90;;;;;;5015778;28;20206;-81
2022/12/25 05:14:50;;;;;;;50.57;29.93;;;9.20;99.90;;;;;;5014819;28;20325;-80
2022/12/25 05:17:17;;;;;;;51.83;29.90;;;9.20;99.90;;;;;;5015208;28;20235;-81
2022/12/25 05:19:44;;;;;;;61.57;31.23;;;9.30;99.90;;;;;;5015221;28;20627;-81
2022/12/25 05:22:11;;;;;;;46.53;29.20;;;9.30;99.90;;;;;;5014993;28;20235;-82
2022/12/25 05:24:38;;;;;;;52.57;30.77;;;9.30;99.90;;;;;;5020711;28;20226;-81
2022/12/25 05:27:05;;;;;;;54.07;30.30;;;9.30;99.90;;;;;;5035101;28;20198;-82
2022/12/25 05:29:32;;;;;;;55.83;30.40;;;9.30;99.90;;;;;;5034757;28;20191;-81
2022/12/25 05:32:00;;;;;;;56.23;30.27;;;9.30;99.90;;;;;;5035070;28;20289;-82
2022/12/25 05:34:27;;;;;;;61.27;31.67;;;9.40;99.90;;;;;;5024941;28;20674;-81
2022/12/25 05:36:55;;;;;;;57.93;31.37;;;9.30;99.90;;;;;;5013051;28;20286;-81
2022/12/25 05:39:22;;;;;;;58.80;32.77;;;9.40;99.90;;;;;;5014322;28;20366;-82
2022/12/25 05:41:49;;;;;;;61.23;32.20;;;9.40;99.90;;;;;;5014896;28;20195;-82
2022/12/25 05:44:16;;;;;;;61.33;32.93;;;9.50;99.90;;;;;;5014937;28;20282;-82
2022/12/25 05:46:43;;;;;;;63.43;33.90;;;9.50;99.90;;;;;;5014744;28;20571;-82
2022/12/25 05:49:11;;;;;;;59.37;32.03;;;9.50;99.90;;;;;;5014854;28;20253;-81
2022/12/25 05:51:38;;;;;;;61.57;34.10;;;9.40;99.90;;;;;;5014570;28;20687;-82
2022/12/25 05:54:05;;;;;;;61.00;33.53;;;9.50;99.90;;;;;;5015111;28;20223;-81
2022/12/25 05:56:32;;;;;;;65.57;33.63;;;9.50;99.90;;;;;;5014833;28;20521;-81
2022/12/25 05:58:59;;;;;;;63.10;33.50;;;9.50;99.90;;;;;;5014861;28;20208;-81
2022/12/25 06:01:28;;;;;;;62.97;34.33;;;9.50;99.90;;;;;;5019576;28;20233;-81
2022/12/25 06:03:55;;;;;;;61.23;34.33;;;9.50;99.90;;;;;;5034569;28;20650;-81
2022/12/25 06:06:24;;;;;;;63.50;33.13;;;9.50;99.90;;;;;;5028994;28;20203;-82
2022/12/25 06:08:53;;;;;;;70.93;35.00;;;9.50;99.90;;;;;;5014412;28;20207;-81
2022/12/25 06:11:20;;;;;;;61.23;33.07;;;9.50;99.90;;;;;;5013579;28;20210;-81
2022/12/25 06:13:50;;;;;;;54.10;32.50;;;9.50;99.90;;;;;;5014123;28;20215;-80
2022/12/25 06:16:17;;;;;;;58.77;31.60;;;9.50;99.90;;;;;;5020475;28;20502;-81
2022/12/25 06:18:50;;;;;;;59.77;33.30;;;9.40;99.90;;;;;;5033671;28;20276;-82
2022/12/25 06:21:17;;;;;;;62.27;32.10;;;9.40;99.90;;;;;;5033926;28;20256;-81
2022/12/25 06:23:46;;;;;;;61.07;32.13;;;9.40;99.90;;;;;;5034285;28;20559;-82
2022/12/25 06:26:15;;;;;;;61.40;31.57;;;9.40;99.90;;;;;;5025448;28;20217;-80
2022/12/25 06:28:43;;;;;;;56.63;32.40;;;9.40;99.90;;;;;;5013895;28;20500;-80
2022/12/25 06:31:12;;;;;;;57.07;31.53;;;9.40;99.90;;;;;;5013165;28;20246;-81
2022/12/25 06:33:39;;;;;;;61.87;30.20;;;9.40;99.90;;;;;;5013290;28;20219;-82
2022/12/25 06:36:07;;;;;;;58.80;31.87;;;9.40;99.90;;;;;;5013444;28;20613;-81
2022/12/25 06:38:34;;;;;;;54.93;29.07;;;9.40;99.90;;;;;;5013088;28;20199;-81
2022/12/25 06:41:07;;;;;;;54.33;29.00;;;9.40;99.90;;;;;;5013636;28;20522;-80
2022/12/25 06:43:34;;;;;;;55.97;31.70;;;9.40;99.90;;;;;;5013577;28;20230;-80
2022/12/25 06:46:05;;;;;;;45.50;28.73;;;9.40;99.90;;;;;;5013329;28;20207;-81
2022/12/25 06:48:33;;;;;;;49.90;28.07;;;9.40;99.90;;;;;;5013524;28;20231;-81
2022/12/25 06:51:00;;;;;;;54.87;30.90;;;9.40;99.90;;;;;;5013252;28;20350;-81
2022/12/25 06:53:26;;;;;;;59.60;29.40;;;9.40;99.90;;;;;;5013583;28;20225;-80
2022/12/25 06:55:53;;;;;;;53.30;29.73;;;9.30;99.90;;;;;;5013218;28;20230;-81
2022/12/25 06:58:22;;;;;;;50.90;29.07;;;9.30;99.90;;;;;;5013899;28;20235;-81
2022/12/25 07:00:49;;;;;;;46.43;27.43;;;9.30;99.90;;;;;;5012485;28;20229;-81
2022/12/25 07:03:20;;;;;;;57.47;29.50;;;9.30;99.90;;;;;;5013324;28;20739;-81
2022/12/25 07:05:47;;;;;;;55.13;30.10;;;9.30;99.90;;;;;;5013146;28;20192;-82
2022/12/25 07:08:14;;;;;;;39.83;25.67;;;9.30;99.90;;;;;;5012422;28;20520;-82
2022/12/25 07:10:41;;;;;;;47.93;27.43;;;9.30;99.90;;;;;;5012457;28;20209;-81
2022/12/25 07:13:08;;;;;;;45.30;26.43;;;9.30;99.90;;;;;;5012503;28;20206;-81
2022/12/25 07:15:36;;;;;;;44.33;26.43;;;9.30;99.90;;;;;;5013140;28;20318;-79
2022/12/25 07:18:03;;;;;;;49.70;27.97;;;9.30;99.90;;;;;;5013153;28;20203;-80
2022/12/25 07:20:30;;;;;;;54.07;27.97;;;9.20;99.90;;;;;;5012839;28;20199;-81
2022/12/25 07:22:57;;;;;;;46.57;27.33;;;9.20;99.90;;;;;;5011577;28;20203;-81
2022/12/25 07:25:24;;;;;;;52.63;29.80;;;9.20;99.90;;;;;;5012891;28;20227;-80
2022/12/25 07:27:51;;;;;;;55.60;28.77;;;9.30;99.90;;;;;;5012758;28;20233;-82
2022/12/25 07:30:18;;;;;;;51.50;29.00;;;9.30;99.90;;;;;;5012268;28;20282;-80
2022/12/25 07:32:47;;;;;;;49.93;28.70;;;9.30;99.90;;;;;;5020476;28;20190;-82
2022/12/25 07:35:14;;;;;;;51.63;30.00;;;9.30;99.90;;;;;;5015963;28;20262;-81
2022/12/25 07:37:41;;;;;;;47.33;27.20;;;9.30;99.90;;;;;;5012793;28;20203;-81
2022/12/25 07:40:09;;;;;;;56.50;28.10;;;9.20;99.90;;;;;;5013578;28;20646;-81
2022/12/25 07:42:36;;;;;;;51.97;27.70;;;9.20;99.90;;;;;;5015276;28;20294;-81
2022/12/25 07:45:04;;;;;;;53.53;28.63;;;9.20;99.90;;;;;;5013277;28;20281;-82
2022/12/25 07:47:30;;;;;;;53.07;27.33;;;9.20;99.90;;;;;;5013096;28;20206;-82
2022/12/25 07:49:59;;;;;;;44.73;26.27;;;9.20;99.90;;;;;;5012625;28;20285;-81
2022/12/25 07:52:26;;;;;;;48.10;27.07;;;9.20;99.90;;;;;;5012793;28;20239;-82
2022/12/25 07:54:52;;;;;;;51.50;28.50;;;9.20;99.90;;;;;;5023035;28;20226;-81
2022/12/25 07:57:19;;;;;;;49.93;27.33;;;9.30;99.90;;;;;;5032869;28;20203;-84
2022/12/25 07:59:46;;;;;;;45.10;27.83;;;9.20;99.90;;;;;;5032967;28;20670;-84
2022/12/25 08:02:13;;;;;;;50.60;27.93;;;9.30;99.90;;;;;;5015921;28;20778;-83
2022/12/25 08:04:41;;;;;;;50.93;28.00;;;9.20;99.90;;;;;;5017233;28;20192;-86
2022/12/25 08:07:10;;;;;;;41.50;25.20;;;9.20;99.90;;;;;;5016916;28;20280;-86
2022/12/25 08:09:36;;;;;;;49.67;27.43;;;9.20;99.90;;;;;;5016093;28;20709;-87
2022/12/25 08:12:03;;;;;;;44.40;26.87;;;9.20;99.90;;;;;;5017113;28;20273;-85
2022/12/25 08:14:30;;;;;;;49.27;26.70;;;9.20;99.90;;;;;;5016832;28;20233;-86
2022/12/25 08:16:57;;;;;;;54.53;29.03;;;9.20;99.90;;;;;;5017396;28;20191;-80
2022/12/25 08:19:24;;;;;;;55.77;28.70;;;9.20;99.90;;;;;;5017144;28;20207;-87
2022/12/25 08:21:51;;;;;;;51.87;29.37;;;9.30;99.90;;;;;;5017614;28;20235;-84
2022/12/25 08:24:19;;;;;;;56.77;30.37;;;9.30;99.90;;;;;;5016880;28;20731;-86
2022/12/25 08:26:46;;;;;;;54.07;28.07;;;9.30;99.90;;;;;;5017506;28;20234;-83
2022/12/25 08:29:13;;;;;;;59.87;31.53;;;9.30;99.90;;;;;;5016207;28;20746;-81
2022/12/25 08:31:42;;;;;;;57.17;28.97;;;9.30;99.90;;;;;;5015109;28;20199;-78
2022/12/25 08:34:09;;;;;;;55.47;28.90;;;9.30;99.90;;;;;;5016248;28;20526;-81
2022/12/25 08:36:36;;;;;;;61.87;30.40;;;9.30;99.90;;;;;;5029029;28;20270;-82
2022/12/25 08:39:04;;;;;;;55.73;31.00;;;9.30;99.90;;;;;;5034893;28;20211;-83
2022/12/25 08:41:35;;;;;;;58.53;30.37;;;9.30;99.90;;;;;;5030999;28;20290;-81
2022/12/25 08:44:02;;;;;;;61.90;30.47;;;9.40;99.90;;;;;;5042765;28;20202;-79
2022/12/25 08:46:29;;;;;;;66.33;32.27;;;9.40;99.90;;;;;;5038481;28;20293;-80
2022/12/25 08:48:56;;;;;;;65.70;30.37;;;9.40;99.90;;;;;;5036519;28;20230;-80
2022/12/25 08:51:24;;;;;;;66.00;31.50;;;9.40;99.90;;;;;;5043331;28;20769;-81
2022/12/25 08:53:53;;;;;;;66.33;32.07;;;9.40;99.90;;;;;;5036686;28;20216;-82
2022/12/25 08:56:20;;;;;;;71.60;32.50;;;9.40;99.90;;;;;;5041491;28;20202;-79
2022/12/25 08:58:49;;;;;;;60.17;29.03;;;9.40;99.90;;;;;;5046969;28;20724;-79
2022/12/25 09:01:16;;;;;;;65.67;31.27;;;9.40;99.90;;;;;;5044631;28;20638;-80
2022/12/25 09:03:43;;;;;;;62.07;30.03;;;9.40;99.90;;;;;;5044720;28;20214;-79
2022/12/25 09:06:12;;;;;;;66.83;30.87;;;9.50;99.90;;;;;;5030198;28;20732;-81
2022/12/25 09:08:40;;;;;;;67.77;31.27;;;9.50;99.90;;;;;;5015308;28;20214;-80
2022/12/25 09:11:09;;;;;;;67.77;31.73;;;9.50;99.90;;;;;;5014373;28;20231;-79
2022/12/25 09:13:36;;;;;;;70.23;32.27;;;9.50;99.90;;;;;;5013947;28;20208;-79
2022/12/25 09:16:07;;;;;;;64.00;30.80;;;9.50;99.90;;;;;;5014621;28;20281;-79
2022/12/25 09:18:34;;;;;;;64.73;31.23;;;9.60;99.90;;;;;;5014926;28;20228;-80
2022/12/25 09:21:02;;;;;;;63.63;30.83;;;9.60;99.90;;;;;;5014521;28;20745;-80
2022/12/25 09:23:29;;;;;;;63.83;30.00;;;9.60;99.90;;;;;;5014970;28;20230;-80
2022/12/25 09:25:58;;;;;;;63.20;29.33;;;9.60;99.90;;;;;;5015767;28;20223;-80
2022/12/25 09:28:25;;;;;;;65.70;30.07;;;9.60;99.90;;;;;;5033028;28;20209;-78
2022/12/25 09:30:52;;;;;;;61.77;27.40;;;9.60;99.90;;;;;;5033963;28;20199;-80
2022/12/25 09:33:21;;;;;;;59.83;27.23;;;9.60;99.90;;;;;;5028209;28;20563;-80
2022/12/25 09:35:54;;;;;;;53.83;26.33;;;9.60;99.90;;;;;;5013623;28;20218;-81
2022/12/25 09:38:21;;;;;;;54.30;26.87;;;9.60;99.90;;;;;;5014052;28;20582;-80
2022/12/25 09:40:48;;;;;;;55.30;25.37;;;9.60;99.90;;;;;;5013807;28;20636;-80
2022/12/25 09:43:20;;;;;;;48.80;23.47;;;9.70;99.90;;;;;;5014252;28;20499;-80
2022/12/25 09:45:47;;;;;;;60.17;26.20;;;9.70;99.90;;;;;;5017615;28;20494;-79
2022/12/25 09:48:15;;;;;;;47.87;23.50;;;9.70;99.90;;;;;;5032979;28;20224;-79
2022/12/25 09:50:48;;;;;;;44.67;24.33;;;9.70;99.90;;;;;;5029833;28;20234;-80
2022/12/25 09:53:19;;;;;;;35.60;19.33;;;9.70;99.90;;;;;;5033319;28;20218;-79
2022/12/25 09:56:04;;;;;;;37.37;19.73;;;9.70;99.90;;;;;;5018409;28;20213;-80
2022/12/25 09:58:33;;;;;;;37.53;19.47;;;9.70;99.90;;;;;;5033000;28;20767;-84
2022/12/25 10:01:07;;;;;;;35.20;18.33;;;9.70;99.90;;;;;;5029554;28;20642;-80
2022/12/25 10:04:02;;;;;;;29.07;17.43;;;9.80;99.90;;;;;;5013147;28;20501;-83
2022/12/25 10:06:39;;;;;;;31.70;16.43;;;9.80;99.90;;;;;;5036310;28;20617;-80
2022/12/25 10:09:18;;;;;;;29.53;16.70;;;9.80;99.90;;;;;;5032152;28;20217;-81
2022/12/25 10:12:16;;;;;;;28.77;15.27;;;9.80;99.90;;;;;;5032134;28;20841;-83
2022/12/25 10:14:55;;;;;;;25.77;14.77;;;9.80;99.90;;;;;;5032518;28;20321;-82
2022/12/25 10:17:37;;;;;;;26.07;13.70;;;9.80;99.90;;;;;;5033650;28;20199;-81
2022/12/25 10:20:17;;;;;;;24.50;14.00;;;9.80;99.90;;;;;;5035520;28;20217;-83
2022/12/25 10:22:52;;;;;;;20.27;13.37;;;9.80;99.90;;;;;;5045510;28;20502;-81
2022/12/25 10:25:21;;;;;;;20.73;12.47;;;9.80;99.90;;;;;;5020554;28;20517;-82
2022/12/25 10:27:51;;;;;;;17.87;12.80;;;9.80;99.90;;;;;;5041894;28;20291;-81
2022/12/25 10:30:20;;;;;;;22.73;13.03;;;9.90;99.90;;;;;;5014087;28;20610;-82
2022/12/25 10:32:48;;;;;;;17.73;11.67;;;9.90;99.90;;;;;;5014840;28;20227;-83
2022/12/25 10:35:18;;;;;;;18.03;12.07;;;9.90;99.90;;;;;;5014842;28;20262;-82
2022/12/25 10:37:54;;;;;;;19.13;13.70;;;9.90;99.90;;;;;;5021175;28;20856;-82
2022/12/25 10:40:31;;;;;;;24.33;15.90;;;9.90;99.90;;;;;;5024215;28;20310;-79
2022/12/25 10:43:06;;;;;;;25.67;16.53;;;9.90;99.90;;;;;;5032208;28;20264;-80
2022/12/25 10:45:43;;;;;;;24.53;18.00;;;9.90;99.90;;;;;;5013677;28;20647;-79
2022/12/25 10:48:19;;;;;;;30.33;20.07;;;9.90;99.90;;;;;;5013937;28;20207;-81
2022/12/25 10:50:46;;;;;;;32.27;20.93;;;9.90;99.90;;;;;;5030011;28;20205;-82
2022/12/25 10:53:21;;;;;;;28.97;19.27;;;9.90;99.90;;;;;;5032764;28;20533;-80
2022/12/25 10:55:59;;;;;;;32.80;21.33;;;9.90;99.90;;;;;;5032731;28;20227;-82
2022/12/25 10:58:26;;;;;;;31.93;21.37;;;9.90;99.90;;;;;;5032682;28;20285;-83
2022/12/25 11:00:55;;;;;;;31.80;20.83;;;9.90;99.90;;;;;;5033066;28;20227;-82
2022/12/25 11:03:25;;;;;;;28.87;20.33;;;9.80;99.90;;;;;;5032993;28;20218;-84
2022/12/25 11:05:53;;;;;;;29.43;19.50;;;9.80;99.90;;;;;;5014053;28;20472;-80
2022/12/25 11:08:24;;;;;;;31.43;21.00;;;9.80;99.90;;;;;;5013184;28;20559;-81
2022/12/25 11:10:56;;;;;;;30.63;20.77;;;9.80;99.90;;;;;;5030173;28;20218;-82
2022/12/25 11:13:25;;;;;;;31.00;19.33;;;9.80;99.90;;;;;;5031608;28;20591;-81
2022/12/25 11:16:02;;;;;;;32.53;20.00;;;9.80;99.90;;;;;;5033282;28;20218;-81
2022/12/25 11:18:34;;;;;;;32.20;19.67;;;9.80;99.90;;;;;;5025967;28;20206;-82
2022/12/25 11:21:02;;;;;;;31.20;20.53;;;9.80;99.90;;;;;;5014058;28;20196;-83
2022/12/25 11:23:32;;;;;;;28.13;20.07;;;9.80;99.90;;;;;;5013773;28;20253;-83
2022/12/25 11:26:01;;;;;;;32.87;21.10;;;9.80;99.90;;;;;;5013457;28;20219;-83
2022/12/25 11:28:30;;;;;;;28.80;20.57;;;9.70;99.90;;;;;;5024111;28;20283;-82
2022/12/25 11:31:01;;;;;;;31.17;21.03;;;9.70;99.90;;;;;;5032823;28;20667;-82
2022/12/25 11:33:32;;;;;;;26.63;19.13;;;9.70;99.90;;;;;;5036769;28;20199;-83
2022/12/25 11:36:03;;;;;;;30.07;20.40;;;9.70;99.90;;;;;;5014086;28;20281;-82
2022/12/25 11:38:32;;;;;;;28.27;19.17;;;9.80;99.90;;;;;;5042220;28;20545;-81
2022/12/25 11:41:03;;;;;;;28.43;19.23;;;9.80;99.90;;;;;;5056096;28;20259;-86
2022/12/25 11:43:35;;;;;;;27.80;18.60;;;9.70;99.90;;;;;;5045737;28;20581;-85
2022/12/25 11:46:12;;;;;;;27.37;18.93;;;9.70;99.90;;;;;;5038649;28;20182;-87
2022/12/25 11:48:44;;;;;;;28.57;18.10;;;9.70;99.90;;;;;;5050960;28;20243;-86
2022/12/25 11:51:12;;;;;;;27.70;18.40;;;9.70;99.90;;;;;;5057649;28;20235;-85
2022/12/25 11:53:44;;;;;;;26.47;17.80;;;9.70;99.90;;;;;;5057537;28;20205;-86
2022/12/25 11:56:15;;;;;;;29.57;18.03;;;9.70;99.90;;;;;;5048814;28;20255;-85
2022/12/25 11:58:46;;;;;;;32.47;19.87;;;9.70;99.90;;;;;;5031067;28;20215;-85
2022/12/25 12:01:18;;;;;;;25.83;18.23;;;9.80;99.90;;;;;;5038038;28;20280;-86
2022/12/25 12:03:45;;;;;;;26.10;17.27;;;9.80;99.90;;;;;;5029966;28;20195;-86
2022/12/25 12:06:17;;;;;;;25.30;17.67;;;9.80;99.90;;;;;;5018050;28;20202;-85
2022/12/25 12:08:47;;;;;;;29.23;18.60;;;9.80;99.90;;;;;;5017734;28;20219;-85
2022/12/25 12:11:19;;;;;;;26.57;17.50;;;9.90;99.90;;;;;;5019658;28;20210;-85
2022/12/25 12:13:59;;;;;;;25.50;17.40;;;9.80;99.90;;;;;;5037337;28;20530;-87
2022/12/25 12:16:26;;;;;;;25.80;15.93;;;9.80;99.90;;;;;;5035992;28;20236;-84
2022/12/25 12:18:53;;;;;;;31.13;17.90;;;9.80;99.90;;;;;;5038177;28;20198;-84
2022/12/25 12:21:22;;;;;;;30.83;19.27;;;9.90;99.90;;;;;;5037491;28;20293;-82
2022/12/25 12:23:54;;;;;;;26.83;18.27;;;9.90;99.90;;;;;;5017795;28;20291;-83
2022/12/25 12:26:24;;;;;;;28.00;18.20;;;9.90;99.90;;;;;;5017690;28;20611;-84
2022/12/25 12:28:53;;;;;;;27.37;17.57;;;9.90;99.90;;;;;;5017524;28;20285;-83
2022/12/25 12:31:20;;;;;;;28.03;17.03;;;9.90;99.90;;;;;;5017314;28;20306;-83
2022/12/25 12:33:54;;;;;;;25.53;17.17;;;9.90;99.90;;;;;;5021681;28;20533;-83
2022/12/25 12:36:25;;;;;;;26.20;16.83;;;9.90;99.90;;;;;;5031570;28;20681;-83
2022/12/25 12:38:56;;;;;;;28.47;17.80;;;9.90;99.90;;;;;;5024525;28;20205;-84
2022/12/25 12:41:25;;;;;;;28.23;17.47;;;9.90;99.90;;;;;;5028828;28;20277;-82
2022/12/25 12:43:56;;;;;;;26.53;18.27;;;9.90;99.90;;;;;;5024584;28;20199;-83
2022/12/25 12:46:26;;;;;;;28.77;18.43;;;9.90;99.90;;;;;;5033661;28;20195;-83
2022/12/25 12:48:55;;;;;;;29.67;19.20;;;10.00;99.90;;;;;;5029545;28;20211;-86
2022/12/25 12:51:30;;;;;;;28.93;19.60;;;10.00;99.90;;;;;;5030567;28;20658;-83
2022/12/25 12:54:20;;;;;;;25.77;17.83;;;10.00;99.90;;;;;;5030947;28;20266;-83
2022/12/25 12:57:00;;;;;;;26.30;18.23;;;10.00;99.90;;;;;;5022433;28;20604;-84
2022/12/25 12:59:36;;;;;;;30.10;21.30;;;10.00;99.90;;;;;;5023219;28;20266;-82
2022/12/25 13:02:22;;;;;;;28.23;19.43;;;10.00;99.90;;;;;;5019680;28;20309;-82
2022/12/25 13:04:58;;;;;;;30.67;21.23;;;10.00;99.90;;;;;;5033116;28;20281;-85
2022/12/25 13:07:42;;;;;;;28.90;21.07;;;10.00;99.90;;;;;;5035772;28;20186;-84
2022/12/25 13:10:21;;;;;;;30.70;21.77;;;10.00;99.90;;;;;;5020739;28;20191;-84
2022/12/25 13:12:53;;;;;;;37.87;23.53;;;10.00;99.90;;;;;;5031531;28;20648;-83
2022/12/25 13:15:24;;;;;;;35.43;23.70;;;10.00;99.90;;;;;;5036757;28;20203;-86
2022/12/25 13:17:51;;;;;;;29.00;22.10;;;9.90;99.90;;;;;;5020373;28;20294;-83
2022/12/25 13:20:24;;;;;;;34.07;23.40;;;9.90;99.90;;;;;;5016115;28;20281;-83
2022/12/25 13:22:51;;;;;;;32.10;22.23;;;10.00;99.90;;;;;;5016019;28;20614;-83
2022/12/25 13:25:22;;;;;;;31.60;22.73;;;10.00;99.90;;;;;;5016408;28;20282;-82
2022/12/25 13:27:55;;;;;;;30.50;21.97;;;10.00;99.90;;;;;;5015921;28;20635;-84
2022/12/25 13:30:23;;;;;;;31.60;22.03;;;10.00;99.90;;;;;;5016134;28;20207;-83
2022/12/25 13:32:51;;;;;;;32.77;23.27;;;10.00;99.90;;;;;;5015659;28;20229;-82
2022/12/25 13:35:20;;;;;;;32.03;22.13;;;9.90;99.90;;;;;;5016251;28;20277;-84
2022/12/25 13:37:47;;;;;;;32.67;21.73;;;10.00;99.90;;;;;;5016183;28;20202;-84
2022/12/25 13:40:24;;;;;;;30.20;20.27;;;9.90;99.90;;;;;;5016632;28;20217;-84
2022/12/25 13:42:54;;;;;;;29.23;21.40;;;10.00;99.90;;;;;;5015542;28;20301;-83
2022/12/25 13:45:23;;;;;;;27.60;19.53;;;10.00;99.90;;;;;;5016422;28;20196;-83
2022/12/25 13:47:50;;;;;;;27.73;20.83;;;10.00;99.90;;;;;;5023759;28;20651;-83
2022/12/25 13:50:21;;;;;;;31.23;20.73;;;10.00;99.90;;;;;;5023964;28;20274;-82
2022/12/25 13:52:49;;;;;;;29.23;20.90;;;9.90;99.90;;;;;;5023121;28;20586;-83
2022/12/25 13:55:17;;;;;;;28.70;20.90;;;10.00;99.90;;;;;;5023928;28;20610;-83
2022/12/25 13:57:50;;;;;;;30.83;22.47;;;9.90;99.90;;;;;;5021942;28;20210;-84
2022/12/25 14:00:20;;;;;;;30.00;20.53;;;9.90;99.90;;;;;;5017578;28;20211;-84
2022/12/25 14:02:48;;;;;;;26.90;21.20;;;9.90;99.90;;;;;;5021981;28;20191;-84
2022/12/25 14:05:27;;;;;;;29.30;19.63;;;9.90;99.90;;;;;;5025863;28;20237;-84
2022/12/25 14:07:56;;;;;;;32.27;21.93;;;9.90;99.90;;;;;;5026896;28;20281;-85
2022/12/25 14:10:25;;;;;;;28.10;20.20;;;9.90;99.90;;;;;;5029097;28;20277;-84
2022/12/25 14:12:57;;;;;;;28.43;20.57;;;9.90;99.90;;;;;;5027179;28;20223;-86
2022/12/25 14:15:25;;;;;;;27.27;20.17;;;9.90;99.90;;;;;;5018219;28;20214;-87
2022/12/25 14:17:52;;;;;;;30.77;20.37;;;9.90;99.90;;;;;;5018363;28;20591;-88
2022/12/25 14:20:24;;;;;;;28.80;20.50;;;9.90;99.90;;;;;;5035457;28;20202;-88
2022/12/25 14:22:53;;;;;;;27.90;20.27;;;9.90;99.90;;;;;;5027396;28;20202;-87
2022/12/25 14:25:20;;;;;;;29.30;20.23;;;9.90;99.90;;;;;;5022024;28;20281;-87
2022/12/25 14:27:49;;;;;;;28.30;19.90;;;9.90;99.90;;;;;;5027023;28;20202;-86
2022/12/25 14:30:19;;;;;;;26.93;20.13;;;9.90;99.90;;;;;;5035122;28;20810;-84